sensor_id;sensor_type;location;lat;lon;timestamp;temperature;humidity
35796;DHT22;21916;52.428;13.302;2023-12-20T00:01:33;6.70;99.90
35796;DHT22;21916;52.428;13.302;2023-12-20T00:03:58;6.60;99.90
35796;DHT22;21916;52.428;13.302;2023-12-20T00:06:24;6.60;99.90
35796;DHT22;21916;52.428;13.302;2023-12-20T00:08:50;6.70;99.90
35796;DHT22;21916;52.428;13.302;2023-12-20T00:11:15;6.70;99.90
35796;DHT22;21916;52.428;13.302;2023-12-20T00:13:41;6.70;99.90
35796;DHT22;21916;52.428;13.302;2023-12-20T00:16:07;6.70;99.90
35796;DHT22;21916;52.428;13.302;2023-12-20T00:18:32;6.70;99.90
35796;DHT22;21916;52.428;13.302;2023-12-20T00:20:58;6.70;99.90
35796;DHT22;21916;52.428;13.302;2023-12-20T00:23:24;6.70;99.90
35796;DHT22;21916;52.428;13.302;2023-12-20T00:25:49;6.70;99.90
35796;DHT22;21916;52.428;13.302;2023-12-20T00:28:15;6.70;99.90
35796;DHT22;21916;52.428;13.302;2023-12-20T00:30:41;6.70;99.90
35796;DHT22;21916;52.428;13.302;2023-12-20T00:33:06;6.70;99.90
35796;DHT22;21916;52.428;13.302;2023-12-20T00:35:32;6.70;99.90
35796;DHT22;21916;52.428;13.302;2023-12-20T00:37:58;6.60;99.90
35796;DHT22;21916;52.428;13.302;2023-12-20T00:40:24;6.70;99.90
35796;DHT22;21916;52.428;13.302;2023-12-20T00:42:50;6.70;99.90
35796;DHT22;21916;52.428;13.302;2023-12-20T00:45:15;6.60;99.90
35796;DHT22;21916;52.428;13.302;2023-12-20T00:47:41;6.60;99.90
35796;DHT22;21916;52.428;13.302;2023-12-20T00:50:07;6.70;99.90
35796;DHT22;21916;52.428;13.302;2023-12-20T00:52:33;6.70;99.90
35796;DHT22;21916;52.428;13.302;2023-12-20T00:54:59;6.70;99.90
35796;DHT22;21916;52.428;13.302;2023-12-20T00:57:24;6.70;99.90
35796;DHT22;21916;52.428;13.302;2023-12-20T00:59:50;6.70;99.90
35796;DHT22;21916;52.428;13.302;2023-12-20T01:02:16;6.60;99.90
35796;DHT22;21916;52.428;13.302;2023-12-20T01:04:42;6.60;99.90
35796;DHT22;21916;52.428;13.302;2023-12-20T01:07:08;6.60;99.90
35796;DHT22;21916;52.428;13.302;2023-12-20T01:09:33;6.60;99.90
35796;DHT22;21916;52.428;13.302;2023-12-20T01:11:59;6.60;99.90
35796;DHT22;21916;52.428;13.302;2023-12-20T01:14:25;6.70;99.90
35796;DHT22;21916;52.428;13.302;2023-12-20T01:16:50;6.60;99.90
35796;DHT22;21916;52.428;13.302;2023-12-20T01:19:16;6.60;99.90
35796;DHT22;21916;52.428;13.302;2023-12-20T01:21:41;6.70;99.90
35796;DHT22;21916;52.428;13.302;2023-12-20T01:24:07;6.80;99.90
35796;DHT22;21916;52.428;13.302;2023-12-20T01:26:33;6.80;99.90
35796;DHT22;21916;52.428;13.302;2023-12-20T01:28:58;6.70;99.90
35796;DHT22;21916;52.428;13.302;2023-12-20T01:31:24;6.70;99.90
35796;DHT22;21916;52.428;13.302;2023-12-20T01:33:50;6.70;99.90
35796;DHT22;21916;52.428;13.302;2023-12-20T01:36:16;6.70;99.90
35796;DHT22;21916;52.428;13.302;2023-12-20T01:38:41;6.70;99.90
35796;DHT22;21916;52.428;13.302;2023-12-20T01:41:07;6.70;99.90
35796;DHT22;21916;52.428;13.302;2023-12-20T01:43:33;6.70;99.90
35796;DHT22;21916;52.428;13.302;2023-12-20T01:45:59;6.70;99.90
35796;DHT22;21916;52.428;13.302;2023-12-20T01:48:25;6.70;99.90
35796;DHT22;21916;52.428;13.302;2023-12-20T01:50:54;6.70;99.90
35796;DHT22;21916;52.428;13.302;2023-12-20T01:53:22;6.60;99.90
35796;DHT22;21916;52.428;13.302;2023-12-20T01:55:50;6.70;99.90
35796;DHT22;21916;52.428;13.302;2023-12-20T01:58:19;6.70;99.90
35796;DHT22;21916;52.428;13.302;2023-12-20T02:00:44;6.70;99.90
35796;DHT22;21916;52.428;13.302;2023-12-20T02:03:11;6.70;99.90
35796;DHT22;21916;52.428;13.302;2023-12-20T02:05:37;6.80;99.90
35796;DHT22;21916;52.428;13.302;2023-12-20T02:08:04;6.70;99.90
35796;DHT22;21916;52.428;13.302;2023-12-20T02:10:31;6.70;99.90
35796;DHT22;21916;52.428;13.302;2023-12-20T02:12:57;6.70;99.90
35796;DHT22;21916;52.428;13.302;2023-12-20T02:18:26;6.70;99.90
35796;DHT22;21916;52.428;13.302;2023-12-20T02:20:51;6.70;99.90
35796;DHT22;21916;52.428;13.302;2023-12-20T02:23:17;6.70;99.90
35796;DHT22;21916;52.428;13.302;2023-12-20T02:25:43;6.70;99.90
35796;DHT22;21916;52.428;13.302;2023-12-20T02:28:09;6.70;99.90
35796;DHT22;21916;52.428;13.302;2023-12-20T02:30:34;6.70;99.90
35796;DHT22;21916;52.428;13.302;2023-12-20T02:33:01;6.70;99.90
35796;DHT22;21916;52.428;13.302;2023-12-20T02:35:26;6.70;99.90
35796;DHT22;21916;52.428;13.302;2023-12-20T02:37:52;6.70;99.90
35796;DHT22;21916;52.428;13.302;2023-12-20T02:40:18;6.70;99.90
35796;DHT22;21916;52.428;13.302;2023-12-20T02:42:43;6.70;99.90
35796;DHT22;21916;52.428;13.302;2023-12-20T02:45:09;6.70;99.90
35796;DHT22;21916;52.428;13.302;2023-12-20T02:47:35;6.70;99.90
35796;DHT22;21916;52.428;13.302;2023-12-20T02:50:00;6.70;99.90
35796;DHT22;21916;52.428;13.302;2023-12-20T02:52:28;6.70;99.90
35796;DHT22;21916;52.428;13.302;2023-12-20T02:54:54;6.70;99.90
35796;DHT22;21916;52.428;13.302;2023-12-20T02:57:20;6.70;99.90
35796;DHT22;21916;52.428;13.302;2023-12-20T02:59:46;6.70;99.90
35796;DHT22;21916;52.428;13.302;2023-12-20T03:02:11;6.70;99.90
35796;DHT22;21916;52.428;13.302;2023-12-20T03:04:37;6.70;99.90
35796;DHT22;21916;52.428;13.302;2023-12-20T03:07:03;6.70;99.90
35796;DHT22;21916;52.428;13.302;2023-12-20T03:09:28;6.70;99.90
35796;DHT22;21916;52.428;13.302;2023-12-20T03:11:54;6.70;99.90
35796;DHT22;21916;52.428;13.302;2023-12-20T03:14:19;6.70;99.90
35796;DHT22;21916;52.428;13.302;2023-12-20T03:16:51;6.70;99.90
35796;DHT22;21916;52.428;13.302;2023-12-20T03:19:18;6.70;99.90
35796;DHT22;21916;52.428;13.302;2023-12-20T03:21:45;6.70;99.90
35796;DHT22;21916;52.428;13.302;2023-12-20T03:24:10;6.70;99.90
35796;DHT22;21916;52.428;13.302;2023-12-20T03:26:36;6.70;99.90
35796;DHT22;21916;52.428;13.302;2023-12-20T03:29:02;6.70;99.90
35796;DHT22;21916;52.428;13.302;2023-12-20T03:31:27;6.60;99.90
35796;DHT22;21916;52.428;13.302;2023-12-20T03:33:53;6.60;99.90
35796;DHT22;21916;52.428;13.302;2023-12-20T03:36:19;6.60;99.90
35796;DHT22;21916;52.428;13.302;2023-12-20T03:38:45;6.70;99.90
35796;DHT22;21916;52.428;13.302;2023-12-20T03:41:11;6.70;99.90
35796;DHT22;21916;52.428;13.302;2023-12-20T03:43:37;6.70;99.90
35796;DHT22;21916;52.428;13.302;2023-12-20T03:46:03;6.60;99.90
35796;DHT22;21916;52.428;13.302;2023-12-20T03:48:30;6.70;99.90
35796;DHT22;21916;52.428;13.302;2023-12-20T03:50:56;6.60;99.90
35796;DHT22;21916;52.428;13.302;2023-12-20T03:53:22;6.60;99.90
35796;DHT22;21916;52.428;13.302;2023-12-20T03:55:48;6.60;99.90
35796;DHT22;21916;52.428;13.302;2023-12-20T03:58:13;6.60;99.90
35796;DHT22;21916;52.428;13.302;2023-12-20T04:00:39;6.60;99.90
35796;DHT22;21916;52.428;13.302;2023-12-20T04:03:05;6.60;99.90
35796;DHT22;21916;52.428;13.302;2023-12-20T04:05:30;6.50;99.90
35796;DHT22;21916;52.428;13.302;2023-12-20T04:07:56;6.60;99.90
35796;DHT22;21916;52.428;13.302;2023-12-20T04:10:22;6.50;99.90
35796;DHT22;21916;52.428;13.302;2023-12-20T04:12:47;6.50;99.90
35796;DHT22;21916;52.428;13.302;2023-12-20T04:15:13;6.50;99.90
35796;DHT22;21916;52.428;13.302;2023-12-20T04:17:39;6.50;99.90
35796;DHT22;21916;52.428;13.302;2023-12-20T04:20:05;6.40;99.90
35796;DHT22;21916;52.428;13.302;2023-12-20T04:22:31;6.40;99.90
35796;DHT22;21916;52.428;13.302;2023-12-20T04:24:56;6.30;99.90
35796;DHT22;21916;52.428;13.302;2023-12-20T04:27:22;6.30;99.90
35796;DHT22;21916;52.428;13.302;2023-12-20T04:29:48;6.20;99.90
35796;DHT22;21916;52.428;13.302;2023-12-20T04:32:13;6.20;99.90
35796;DHT22;21916;52.428;13.302;2023-12-20T04:34:39;6.20;99.90
35796;DHT22;21916;52.428;13.302;2023-12-20T04:37:04;6.10;99.90
35796;DHT22;21916;52.428;13.302;2023-12-20T04:39:30;6.10;99.90
35796;DHT22;21916;52.428;13.302;2023-12-20T04:41:56;6.00;99.90
35796;DHT22;21916;52.428;13.302;2023-12-20T04:44:21;6.00;99.90
35796;DHT22;21916;52.428;13.302;2023-12-20T04:46:47;6.00;99.90
35796;DHT22;21916;52.428;13.302;2023-12-20T04:49:13;5.90;99.90
35796;DHT22;21916;52.428;13.302;2023-12-20T04:51:39;5.80;99.90
35796;DHT22;21916;52.428;13.302;2023-12-20T04:54:06;5.80;99.90
35796;DHT22;21916;52.428;13.302;2023-12-20T04:56:32;5.80;99.90
35796;DHT22;21916;52.428;13.302;2023-12-20T04:58:57;5.80;99.90
35796;DHT22;21916;52.428;13.302;2023-12-20T05:01:23;5.70;99.90
35796;DHT22;21916;52.428;13.302;2023-12-20T05:03:49;5.70;99.90
35796;DHT22;21916;52.428;13.302;2023-12-20T05:06:14;5.60;99.90
35796;DHT22;21916;52.428;13.302;2023-12-20T05:08:40;5.60;99.90
35796;DHT22;21916;52.428;13.302;2023-12-20T05:11:06;5.60;99.90
35796;DHT22;21916;52.428;13.302;2023-12-20T05:13:32;5.60;99.90
35796;DHT22;21916;52.428;13.302;2023-12-20T05:15:57;5.60;99.90
35796;DHT22;21916;52.428;13.302;2023-12-20T05:18:23;5.50;99.90
35796;DHT22;21916;52.428;13.302;2023-12-20T05:20:50;5.60;99.90
35796;DHT22;21916;52.428;13.302;2023-12-20T05:23:16;5.60;99.90
35796;DHT22;21916;52.428;13.302;2023-12-20T05:25:43;5.60;99.90
35796;DHT22;21916;52.428;13.302;2023-12-20T05:28:08;5.50;99.90
35796;DHT22;21916;52.428;13.302;2023-12-20T05:30:34;5.50;99.90
35796;DHT22;21916;52.428;13.302;2023-12-20T05:32:59;5.40;99.90
35796;DHT22;21916;52.428;13.302;2023-12-20T05:35:25;5.40;99.90
35796;DHT22;21916;52.428;13.302;2023-12-20T05:37:51;5.40;99.90
35796;DHT22;21916;52.428;13.302;2023-12-20T05:40:16;5.30;99.90
35796;DHT22;21916;52.428;13.302;2023-12-20T05:42:42;5.30;99.90
35796;DHT22;21916;52.428;13.302;2023-12-20T05:45:09;5.20;99.90
35796;DHT22;21916;52.428;13.302;2023-12-20T05:47:34;5.20;99.90
35796;DHT22;21916;52.428;13.302;2023-12-20T05:50:00;5.20;99.90
35796;DHT22;21916;52.428;13.302;2023-12-20T05:52:26;5.10;99.90
35796;DHT22;21916;52.428;13.302;2023-12-20T05:54:51;5.10;99.90
35796;DHT22;21916;52.428;13.302;2023-12-20T05:57:17;5.00;99.90
35796;DHT22;21916;52.428;13.302;2023-12-20T05:59:43;5.10;99.90
35796;DHT22;21916;52.428;13.302;2023-12-20T06:02:09;5.00;99.90
35796;DHT22;21916;52.428;13.302;2023-12-20T06:04:34;5.00;99.90
35796;DHT22;21916;52.428;13.302;2023-12-20T06:07:00;4.90;99.90
35796;DHT22;21916;52.428;13.302;2023-12-20T06:09:29;4.90;99.90
35796;DHT22;21916;52.428;13.302;2023-12-20T06:11:55;4.90;99.90
35796;DHT22;21916;52.428;13.302;2023-12-20T06:14:21;4.90;99.90
35796;DHT22;21916;52.428;13.302;2023-12-20T06:16:47;4.90;99.90
35796;DHT22;21916;52.428;13.302;2023-12-20T06:19:12;4.80;99.90
35796;DHT22;21916;52.428;13.302;2023-12-20T06:21:38;4.80;99.90
35796;DHT22;21916;52.428;13.302;2023-12-20T06:24:04;4.90;99.90
35796;DHT22;21916;52.428;13.302;2023-12-20T06:26:29;4.90;99.90
35796;DHT22;21916;52.428;13.302;2023-12-20T06:28:55;4.80;99.90
35796;DHT22;21916;52.428;13.302;2023-12-20T06:31:21;4.80;99.90
35796;DHT22;21916;52.428;13.302;2023-12-20T06:33:47;4.90;99.90
35796;DHT22;21916;52.428;13.302;2023-12-20T06:36:15;4.90;99.90
35796;DHT22;21916;52.428;13.302;2023-12-20T06:38:40;4.90;99.90
35796;DHT22;21916;52.428;13.302;2023-12-20T06:41:07;5.00;99.90
35796;DHT22;21916;52.428;13.302;2023-12-20T06:43:33;5.00;99.90
35796;DHT22;21916;52.428;13.302;2023-12-20T06:46:00;5.00;99.90
35796;DHT22;21916;52.428;13.302;2023-12-20T06:48:26;5.00;99.90
35796;DHT22;21916;52.428;13.302;2023-12-20T06:50:52;5.00;99.90
35796;DHT22;21916;52.428;13.302;2023-12-20T06:53:18;5.00;99.90
35796;DHT22;21916;52.428;13.302;2023-12-20T06:55:43;5.00;99.90
35796;DHT22;21916;52.428;13.302;2023-12-20T06:58:09;5.00;99.90
35796;DHT22;21916;52.428;13.302;2023-12-20T07:00:35;5.00;99.90
35796;DHT22;21916;52.428;13.302;2023-12-20T07:03:00;5.00;99.90
35796;DHT22;21916;52.428;13.302;2023-12-20T07:05:26;5.00;99.90
35796;DHT22;21916;52.428;13.302;2023-12-20T07:07:52;5.00;99.90
35796;DHT22;21916;52.428;13.302;2023-12-20T07:10:17;5.10;99.90
35796;DHT22;21916;52.428;13.302;2023-12-20T07:12:43;5.10;99.90
35796;DHT22;21916;52.428;13.302;2023-12-20T07:15:09;5.10;99.90
35796;DHT22;21916;52.428;13.302;2023-12-20T07:17:35;5.10;99.90
35796;DHT22;21916;52.428;13.302;2023-12-20T07:20:01;5.10;99.90
35796;DHT22;21916;52.428;13.302;2023-12-20T07:22:30;5.10;99.90
35796;DHT22;21916;52.428;13.302;2023-12-20T07:24:59;5.20;99.90
35796;DHT22;21916;52.428;13.302;2023-12-20T07:27:25;5.20;99.90
35796;DHT22;21916;52.428;13.302;2023-12-20T07:29:51;5.20;99.90
35796;DHT22;21916;52.428;13.302;2023-12-20T07:32:17;5.30;99.90
35796;DHT22;21916;52.428;13.302;2023-12-20T07:34:43;5.20;99.90
35796;DHT22;21916;52.428;13.302;2023-12-20T07:37:08;5.30;99.90
35796;DHT22;21916;52.428;13.302;2023-12-20T07:39:36;5.30;99.90
35796;DHT22;21916;52.428;13.302;2023-12-20T07:42:01;5.30;99.90
35796;DHT22;21916;52.428;13.302;2023-12-20T07:44:27;5.30;99.90
35796;DHT22;21916;52.428;13.302;2023-12-20T07:46:53;5.30;99.90
35796;DHT22;21916;52.428;13.302;2023-12-20T07:49:19;5.30;99.90
35796;DHT22;21916;52.428;13.302;2023-12-20T07:51:44;5.40;99.90
35796;DHT22;21916;52.428;13.302;2023-12-20T07:54:10;5.40;99.90
35796;DHT22;21916;52.428;13.302;2023-12-20T07:56:36;5.40;99.90
35796;DHT22;21916;52.428;13.302;2023-12-20T07:59:04;5.40;99.90
35796;DHT22;21916;52.428;13.302;2023-12-20T08:01:30;5.50;99.90
35796;DHT22;21916;52.428;13.302;2023-12-20T08:03:56;5.50;99.90
35796;DHT22;21916;52.428;13.302;2023-12-20T08:06:22;5.50;99.90
35796;DHT22;21916;52.428;13.302;2023-12-20T08:08:48;5.50;99.90
35796;DHT22;21916;52.428;13.302;2023-12-20T08:11:14;5.50;99.90
35796;DHT22;21916;52.428;13.302;2023-12-20T08:13:39;5.50;99.90
35796;DHT22;21916;52.428;13.302;2023-12-20T08:16:05;5.50;99.90
35796;DHT22;21916;52.428;13.302;2023-12-20T08:18:31;5.50;99.90
35796;DHT22;21916;52.428;13.302;2023-12-20T08:20:56;5.50;99.90
35796;DHT22;21916;52.428;13.302;2023-12-20T08:23:22;5.40;99.90
35796;DHT22;21916;52.428;13.302;2023-12-20T08:25:48;5.40;99.90
35796;DHT22;21916;52.428;13.302;2023-12-20T08:28:14;5.40;99.90
35796;DHT22;21916;52.428;13.302;2023-12-20T08:30:40;5.40;99.90
35796;DHT22;21916;52.428;13.302;2023-12-20T08:33:06;5.40;99.90
35796;DHT22;21916;52.428;13.302;2023-12-20T08:35:36;5.40;99.90
35796;DHT22;21916;52.428;13.302;2023-12-20T08:38:02;5.40;99.90
35796;DHT22;21916;52.428;13.302;2023-12-20T08:40:29;5.50;99.90
35796;DHT22;21916;52.428;13.302;2023-12-20T08:42:55;5.50;99.90
35796;DHT22;21916;52.428;13.302;2023-12-20T08:45:20;5.60;99.90
35796;DHT22;21916;52.428;13.302;2023-12-20T08:47:46;5.70;99.90
35796;DHT22;21916;52.428;13.302;2023-12-20T08:50:12;5.70;99.90
35796;DHT22;21916;52.428;13.302;2023-12-20T08:52:38;5.80;99.90
35796;DHT22;21916;52.428;13.302;2023-12-20T08:55:04;5.80;99.90
35796;DHT22;21916;52.428;13.302;2023-12-20T08:57:29;5.80;99.90
35796;DHT22;21916;52.428;13.302;2023-12-20T08:59:57;5.80;99.90
35796;DHT22;21916;52.428;13.302;2023-12-20T09:02:23;5.80;99.90
35796;DHT22;21916;52.428;13.302;2023-12-20T09:04:49;5.80;99.90
35796;DHT22;21916;52.428;13.302;2023-12-20T09:07:24;5.80;99.90
35796;DHT22;21916;52.428;13.302;2023-12-20T09:09:51;6.00;99.90
35796;DHT22;21916;52.428;13.302;2023-12-20T09:12:18;6.00;99.90
35796;DHT22;21916;52.428;13.302;2023-12-20T09:14:48;6.00;99.90
35796;DHT22;21916;52.428;13.302;2023-12-20T09:17:15;6.00;99.90
35796;DHT22;21916;52.428;13.302;2023-12-20T09:19:42;6.00;99.90
35796;DHT22;21916;52.428;13.302;2023-12-20T09:22:09;6.00;99.90
35796;DHT22;21916;52.428;13.302;2023-12-20T09:24:35;6.00;99.90
35796;DHT22;21916;52.428;13.302;2023-12-20T09:27:01;5.90;99.90
35796;DHT22;21916;52.428;13.302;2023-12-20T09:29:28;6.00;99.90
35796;DHT22;21916;52.428;13.302;2023-12-20T09:31:54;6.00;99.90
35796;DHT22;21916;52.428;13.302;2023-12-20T09:34:20;6.00;99.90
35796;DHT22;21916;52.428;13.302;2023-12-20T09:36:46;6.10;99.90
35796;DHT22;21916;52.428;13.302;2023-12-20T09:39:17;6.20;99.90
35796;DHT22;21916;52.428;13.302;2023-12-20T09:42:04;6.10;99.90
35796;DHT22;21916;52.428;13.302;2023-12-20T09:44:31;6.20;99.90
35796;DHT22;21916;52.428;13.302;2023-12-20T09:46:57;6.20;99.90
35796;DHT22;21916;52.428;13.302;2023-12-20T09:49:23;6.20;99.90
35796;DHT22;21916;52.428;13.302;2023-12-20T09:51:53;6.20;99.90
35796;DHT22;21916;52.428;13.302;2023-12-20T09:54:20;6.20;99.90
35796;DHT22;21916;52.428;13.302;2023-12-20T09:56:46;6.30;99.90
35796;DHT22;21916;52.428;13.302;2023-12-20T09:59:12;6.30;99.90
35796;DHT22;21916;52.428;13.302;2023-12-20T10:01:39;6.30;99.90
35796;DHT22;21916;52.428;13.302;2023-12-20T10:04:06;6.30;99.90
35796;DHT22;21916;52.428;13.302;2023-12-20T10:06:39;6.40;99.90
35796;DHT22;21916;52.428;13.302;2023-12-20T10:09:05;6.40;99.90
35796;DHT22;21916;52.428;13.302;2023-12-20T10:11:31;6.50;99.90
35796;DHT22;21916;52.428;13.302;2023-12-20T10:14:01;6.50;99.90
35796;DHT22;21916;52.428;13.302;2023-12-20T10:16:27;6.60;99.90
35796;DHT22;21916;52.428;13.302;2023-12-20T10:18:54;6.60;99.90
35796;DHT22;21916;52.428;13.302;2023-12-20T10:21:19;6.60;99.90
35796;DHT22;21916;52.428;13.302;2023-12-20T10:23:45;6.60;99.90
35796;DHT22;21916;52.428;13.302;2023-12-20T10:26:19;6.60;99.90
35796;DHT22;21916;52.428;13.302;2023-12-20T10:28:50;6.60;99.90
35796;DHT22;21916;52.428;13.302;2023-12-20T10:31:29;6.60;99.90
35796;DHT22;21916;52.428;13.302;2023-12-20T10:33:56;6.60;99.90
35796;DHT22;21916;52.428;13.302;2023-12-20T10:36:24;6.60;99.90
35796;DHT22;21916;52.428;13.302;2023-12-20T10:38:53;6.60;99.90
35796;DHT22;21916;52.428;13.302;2023-12-20T10:41:24;6.60;99.90
35796;DHT22;21916;52.428;13.302;2023-12-20T10:43:52;6.70;99.90
35796;DHT22;21916;52.428;13.302;2023-12-20T10:46:19;6.80;99.90
35796;DHT22;21916;52.428;13.302;2023-12-20T10:48:45;6.80;99.90
35796;DHT22;21916;52.428;13.302;2023-12-20T10:51:14;6.80;99.90
35796;DHT22;21916;52.428;13.302;2023-12-20T10:53:43;6.80;99.90
35796;DHT22;21916;52.428;13.302;2023-12-20T10:56:12;6.80;99.90
35796;DHT22;21916;52.428;13.302;2023-12-20T10:58:39;6.80;99.90
35796;DHT22;21916;52.428;13.302;2023-12-20T11:01:07;6.80;99.90
35796;DHT22;21916;52.428;13.302;2023-12-20T11:03:35;6.80;99.90
35796;DHT22;21916;52.428;13.302;2023-12-20T11:08:48;6.80;99.90
35796;DHT22;21916;52.428;13.302;2023-12-20T11:11:29;6.80;99.90
35796;DHT22;21916;52.428;13.302;2023-12-20T11:14:00;6.70;99.90
35796;DHT22;21916;52.428;13.302;2023-12-20T11:16:27;6.80;99.90
35796;DHT22;21916;52.428;13.302;2023-12-20T11:18:53;6.70;99.90
35796;DHT22;21916;52.428;13.302;2023-12-20T11:21:19;6.70;99.90
35796;DHT22;21916;52.428;13.302;2023-12-20T11:23:45;6.70;99.90
35796;DHT22;21916;52.428;13.302;2023-12-20T11:26:11;6.70;99.90
35796;DHT22;21916;52.428;13.302;2023-12-20T11:28:36;6.70;99.90
35796;DHT22;21916;52.428;13.302;2023-12-20T11:31:02;6.60;99.90
35796;DHT22;21916;52.428;13.302;2023-12-20T11:33:36;6.50;99.90
35796;DHT22;21916;52.428;13.302;2023-12-20T11:36:02;6.40;99.90
35796;DHT22;21916;52.428;13.302;2023-12-20T11:38:36;6.30;99.90
35796;DHT22;21916;52.428;13.302;2023-12-20T11:41:05;6.30;99.90
35796;DHT22;21916;52.428;13.302;2023-12-20T11:43:34;6.30;99.90
35796;DHT22;21916;52.428;13.302;2023-12-20T11:46:08;6.30;99.90
35796;DHT22;21916;52.428;13.302;2023-12-20T11:48:35;6.30;99.90
35796;DHT22;21916;52.428;13.302;2023-12-20T11:51:01;6.30;99.90
35796;DHT22;21916;52.428;13.302;2023-12-20T11:53:29;6.40;99.90
35796;DHT22;21916;52.428;13.302;2023-12-20T11:55:56;6.30;99.90
35796;DHT22;21916;52.428;13.302;2023-12-20T11:58:22;6.40;99.90
35796;DHT22;21916;52.428;13.302;2023-12-20T12:00:49;6.30;99.90
35796;DHT22;21916;52.428;13.302;2023-12-20T12:03:15;6.30;99.90
35796;DHT22;21916;52.428;13.302;2023-12-20T12:05:41;6.30;99.90
35796;DHT22;21916;52.428;13.302;2023-12-20T12:08:07;6.40;99.90
35796;DHT22;21916;52.428;13.302;2023-12-20T12:10:33;6.40;99.90
35796;DHT22;21916;52.428;13.302;2023-12-20T12:12:59;6.40;99.90
35796;DHT22;21916;52.428;13.302;2023-12-20T12:15:26;6.40;99.90
35796;DHT22;21916;52.428;13.302;2023-12-20T12:17:56;6.50;99.90
35796;DHT22;21916;52.428;13.302;2023-12-20T12:20:22;6.50;99.90
35796;DHT22;21916;52.428;13.302;2023-12-20T12:23:14;6.50;99.90
35796;DHT22;21916;52.428;13.302;2023-12-20T12:25:47;6.50;99.90
35796;DHT22;21916;52.428;13.302;2023-12-20T12:28:14;6.50;99.90
35796;DHT22;21916;52.428;13.302;2023-12-20T12:30:39;6.50;99.90
35796;DHT22;21916;52.428;13.302;2023-12-20T12:33:05;6.50;99.90
35796;DHT22;21916;52.428;13.302;2023-12-20T12:35:31;6.40;99.90
35796;DHT22;21916;52.428;13.302;2023-12-20T12:37:58;6.30;99.90
35796;DHT22;21916;52.428;13.302;2023-12-20T12:40:24;6.20;99.90
35796;DHT22;21916;52.428;13.302;2023-12-20T12:42:51;6.20;99.90
35796;DHT22;21916;52.428;13.302;2023-12-20T12:45:16;6.10;99.90
35796;DHT22;21916;52.428;13.302;2023-12-20T12:47:42;6.10;99.90
35796;DHT22;21916;52.428;13.302;2023-12-20T12:50:08;6.10;99.90
35796;DHT22;21916;52.428;13.302;2023-12-20T12:52:34;6.10;99.90
35796;DHT22;21916;52.428;13.302;2023-12-20T12:55:00;6.10;99.90
35796;DHT22;21916;52.428;13.302;2023-12-20T12:57:26;6.00;99.90
35796;DHT22;21916;52.428;13.302;2023-12-20T12:59:52;6.00;99.90
35796;DHT22;21916;52.428;13.302;2023-12-20T13:02:18;6.00;99.90
35796;DHT22;21916;52.428;13.302;2023-12-20T13:04:44;5.90;99.90
35796;DHT22;21916;52.428;13.302;2023-12-20T13:07:10;5.90;99.90
35796;DHT22;21916;52.428;13.302;2023-12-20T13:09:38;5.90;99.90
35796;DHT22;21916;52.428;13.302;2023-12-20T13:12:06;5.90;99.90
35796;DHT22;21916;52.428;13.302;2023-12-20T13:14:33;5.90;99.90
35796;DHT22;21916;52.428;13.302;2023-12-20T13:17:00;5.90;99.90
35796;DHT22;21916;52.428;13.302;2023-12-20T13:19:26;5.90;99.90
35796;DHT22;21916;52.428;13.302;2023-12-20T13:21:51;5.90;99.90
35796;DHT22;21916;52.428;13.302;2023-12-20T13:24:17;5.90;99.90
35796;DHT22;21916;52.428;13.302;2023-12-20T13:26:44;5.90;99.90
35796;DHT22;21916;52.428;13.302;2023-12-20T13:29:09;5.90;99.90
35796;DHT22;21916;52.428;13.302;2023-12-20T13:31:35;5.90;99.90
35796;DHT22;21916;52.428;13.302;2023-12-20T13:34:02;5.80;99.90
35796;DHT22;21916;52.428;13.302;2023-12-20T13:36:27;5.80;99.90
35796;DHT22;21916;52.428;13.302;2023-12-20T13:38:53;5.70;99.90
35796;DHT22;21916;52.428;13.302;2023-12-20T13:41:19;5.60;99.90
35796;DHT22;21916;52.428;13.302;2023-12-20T13:43:45;5.50;99.90
35796;DHT22;21916;52.428;13.302;2023-12-20T13:46:11;5.50;99.90
35796;DHT22;21916;52.428;13.302;2023-12-20T13:48:36;5.40;99.90
35796;DHT22;21916;52.428;13.302;2023-12-20T13:51:02;5.30;99.90
35796;DHT22;21916;52.428;13.302;2023-12-20T13:53:28;5.30;99.90
35796;DHT22;21916;52.428;13.302;2023-12-20T13:55:54;5.20;99.90
35796;DHT22;21916;52.428;13.302;2023-12-20T13:58:19;5.20;99.90
35796;DHT22;21916;52.428;13.302;2023-12-20T14:00:45;5.00;99.90
35796;DHT22;21916;52.428;13.302;2023-12-20T14:03:11;5.00;99.90
35796;DHT22;21916;52.428;13.302;2023-12-20T14:05:37;5.00;99.90
35796;DHT22;21916;52.428;13.302;2023-12-20T14:08:03;4.90;99.90
35796;DHT22;21916;52.428;13.302;2023-12-20T14:10:29;4.90;99.90
35796;DHT22;21916;52.428;13.302;2023-12-20T14:12:55;4.90;99.90
35796;DHT22;21916;52.428;13.302;2023-12-20T14:15:21;4.80;99.90
35796;DHT22;21916;52.428;13.302;2023-12-20T14:17:46;4.70;99.90
35796;DHT22;21916;52.428;13.302;2023-12-20T14:20:12;4.70;99.90
35796;DHT22;21916;52.428;13.302;2023-12-20T14:22:38;4.70;99.90
35796;DHT22;21916;52.428;13.302;2023-12-20T14:25:08;4.70;99.90
35796;DHT22;21916;52.428;13.302;2023-12-20T14:27:34;4.60;99.90
35796;DHT22;21916;52.428;13.302;2023-12-20T14:29:59;4.60;99.90
35796;DHT22;21916;52.428;13.302;2023-12-20T14:32:26;4.60;99.90
35796;DHT22;21916;52.428;13.302;2023-12-20T14:34:53;4.60;99.90
35796;DHT22;21916;52.428;13.302;2023-12-20T14:37:20;4.50;99.90
35796;DHT22;21916;52.428;13.302;2023-12-20T14:39:46;4.50;99.90
35796;DHT22;21916;52.428;13.302;2023-12-20T14:42:11;4.60;99.90
35796;DHT22;21916;52.428;13.302;2023-12-20T14:44:40;4.60;99.90
35796;DHT22;21916;52.428;13.302;2023-12-20T14:47:09;4.60;99.90
35796;DHT22;21916;52.428;13.302;2023-12-20T14:49:35;4.70;99.90
35796;DHT22;21916;52.428;13.302;2023-12-20T14:52:03;4.80;99.90
35796;DHT22;21916;52.428;13.302;2023-12-20T14:54:29;4.80;99.90
35796;DHT22;21916;52.428;13.302;2023-12-20T14:56:54;4.80;99.90
35796;DHT22;21916;52.428;13.302;2023-12-20T14:59:21;4.90;99.90
35796;DHT22;21916;52.428;13.302;2023-12-20T15:01:47;4.90;99.90
35796;DHT22;21916;52.428;13.302;2023-12-20T15:04:13;4.90;99.90
35796;DHT22;21916;52.428;13.302;2023-12-20T15:06:39;4.80;99.90
35796;DHT22;21916;52.428;13.302;2023-12-20T15:09:05;4.80;99.90
35796;DHT22;21916;52.428;13.302;2023-12-20T15:11:31;4.90;99.90
35796;DHT22;21916;52.428;13.302;2023-12-20T15:13:57;4.90;99.90
35796;DHT22;21916;52.428;13.302;2023-12-20T15:16:25;4.90;99.90
35796;DHT22;21916;52.428;13.302;2023-12-20T15:18:52;4.90;99.90
35796;DHT22;21916;52.428;13.302;2023-12-20T15:21:19;4.90;99.90
35796;DHT22;21916;52.428;13.302;2023-12-20T15:23:45;4.90;99.90
35796;DHT22;21916;52.428;13.302;2023-12-20T15:26:32;4.80;99.90
35796;DHT22;21916;52.428;13.302;2023-12-20T15:28:58;4.80;99.90
35796;DHT22;21916;52.428;13.302;2023-12-20T15:31:24;4.80;99.90